sensor_id;sensor_type;location;lat;lon;timestamp;temperature;humidity
59505;DHT22;45321;53.200;5.814;2023-04-25T00:01:05;8.60;76.00
59505;DHT22;45321;53.200;5.814;2023-04-25T00:03:31;8.60;76.20
59505;DHT22;45321;53.200;5.814;2023-04-25T00:05:58;8.60;76.40
59505;DHT22;45321;53.200;5.814;2023-04-25T00:08:29;8.70;76.20
59505;DHT22;45321;53.200;5.814;2023-04-25T00:10:56;8.70;76.00
59505;DHT22;45321;53.200;5.814;2023-04-25T00:13:22;8.60;75.30
59505;DHT22;45321;53.200;5.814;2023-04-25T00:15:48;8.60;75.40
59505;DHT22;45321;53.200;5.814;2023-04-25T00:18:14;8.60;75.10
59505;DHT22;45321;53.200;5.814;2023-04-25T00:20:40;8.60;74.50
59505;DHT22;45321;53.200;5.814;2023-04-25T00:23:10;8.60;74.20
59505;DHT22;45321;53.200;5.814;2023-04-25T00:25:35;8.60;74.20
59505;DHT22;45321;53.200;5.814;2023-04-25T00:28:01;8.60;74.20
59505;DHT22;45321;53.200;5.814;2023-04-25T00:30:27;8.60;74.10
59505;DHT22;45321;53.200;5.814;2023-04-25T00:32:53;8.50;73.30
59505;DHT22;45321;53.200;5.814;2023-04-25T00:35:19;8.60;73.80
59505;DHT22;45321;53.200;5.814;2023-04-25T00:37:45;8.50;72.90
59505;DHT22;45321;53.200;5.814;2023-04-25T00:40:11;8.50;72.70
59505;DHT22;45321;53.200;5.814;2023-04-25T00:42:37;8.50;72.70
59505;DHT22;45321;53.200;5.814;2023-04-25T00:45:05;8.60;72.70
59505;DHT22;45321;53.200;5.814;2023-04-25T00:47:33;8.50;72.80
59505;DHT22;45321;53.200;5.814;2023-04-25T00:49:59;8.50;72.50
59505;DHT22;45321;53.200;5.814;2023-04-25T00:52:24;8.50;71.90
59505;DHT22;45321;53.200;5.814;2023-04-25T00:54:50;8.50;72.90
59505;DHT22;45321;53.200;5.814;2023-04-25T00:57:16;8.50;72.60
59505;DHT22;45321;53.200;5.814;2023-04-25T00:59:45;8.50;72.40
59505;DHT22;45321;53.200;5.814;2023-04-25T01:02:12;8.50;72.20
59505;DHT22;45321;53.200;5.814;2023-04-25T01:04:38;8.40;72.60
59505;DHT22;45321;53.200;5.814;2023-04-25T01:07:04;8.50;72.80
59505;DHT22;45321;53.200;5.814;2023-04-25T01:09:30;8.50;72.00
59505;DHT22;45321;53.200;5.814;2023-04-25T01:11:57;8.40;72.30
59505;DHT22;45321;53.200;5.814;2023-04-25T01:14:23;8.40;72.80
59505;DHT22;45321;53.200;5.814;2023-04-25T01:16:49;8.30;72.80
59505;DHT22;45321;53.200;5.814;2023-04-25T01:19:16;8.30;73.20
59505;DHT22;45321;53.200;5.814;2023-04-25T01:21:43;8.30;73.80
59505;DHT22;45321;53.200;5.814;2023-04-25T01:24:10;8.20;73.60
59505;DHT22;45321;53.200;5.814;2023-04-25T01:26:36;8.20;73.00
59505;DHT22;45321;53.200;5.814;2023-04-25T01:29:04;8.20;73.00
59505;DHT22;45321;53.200;5.814;2023-04-25T01:31:30;8.10;72.50
59505;DHT22;45321;53.200;5.814;2023-04-25T01:33:57;8.10;72.40
59505;DHT22;45321;53.200;5.814;2023-04-25T01:36:23;8.10;72.20
59505;DHT22;45321;53.200;5.814;2023-04-25T01:38:49;8.00;71.90
59505;DHT22;45321;53.200;5.814;2023-04-25T01:41:15;8.10;71.60
59505;DHT22;45321;53.200;5.814;2023-04-25T01:43:43;8.00;71.10
59505;DHT22;45321;53.200;5.814;2023-04-25T01:46:11;8.00;70.30
59505;DHT22;45321;53.200;5.814;2023-04-25T01:48:37;8.00;70.80
59505;DHT22;45321;53.200;5.814;2023-04-25T01:51:03;8.00;70.30
59505;DHT22;45321;53.200;5.814;2023-04-25T01:53:29;8.00;71.20
59505;DHT22;45321;53.200;5.814;2023-04-25T01:55:55;8.00;71.40
59505;DHT22;45321;53.200;5.814;2023-04-25T01:58:21;8.00;71.50
59505;DHT22;45321;53.200;5.814;2023-04-25T02:00:46;8.00;71.90
59505;DHT22;45321;53.200;5.814;2023-04-25T02:03:12;8.10;72.00
59505;DHT22;45321;53.200;5.814;2023-04-25T02:05:39;8.00;72.20
59505;DHT22;45321;53.200;5.814;2023-04-25T02:08:06;7.90;72.20
59505;DHT22;45321;53.200;5.814;2023-04-25T02:10:33;7.90;72.30
59505;DHT22;45321;53.200;5.814;2023-04-25T02:12:59;8.00;72.50
59505;DHT22;45321;53.200;5.814;2023-04-25T02:15:25;8.00;72.10
59505;DHT22;45321;53.200;5.814;2023-04-25T02:17:50;7.90;71.90
59505;DHT22;45321;53.200;5.814;2023-04-25T02:20:20;7.90;71.20
59505;DHT22;45321;53.200;5.814;2023-04-25T02:22:46;7.90;70.70
59505;DHT22;45321;53.200;5.814;2023-04-25T02:25:12;7.90;70.70
59505;DHT22;45321;53.200;5.814;2023-04-25T02:27:38;7.90;70.20
59505;DHT22;45321;53.200;5.814;2023-04-25T02:30:05;7.90;70.50
59505;DHT22;45321;53.200;5.814;2023-04-25T02:32:32;7.90;71.40
59505;DHT22;45321;53.200;5.814;2023-04-25T02:35:00;7.80;71.40
59505;DHT22;45321;53.200;5.814;2023-04-25T02:37:30;7.80;71.30
59505;DHT22;45321;53.200;5.814;2023-04-25T02:39:55;7.80;72.00
59505;DHT22;45321;53.200;5.814;2023-04-25T02:42:21;7.80;71.60
59505;DHT22;45321;53.200;5.814;2023-04-25T02:44:47;7.80;71.60
59505;DHT22;45321;53.200;5.814;2023-04-25T02:47:13;7.80;71.30
59505;DHT22;45321;53.200;5.814;2023-04-25T02:49:38;7.80;71.90
59505;DHT22;45321;53.200;5.814;2023-04-25T02:52:04;7.80;71.50
59505;DHT22;45321;53.200;5.814;2023-04-25T02:54:30;7.80;72.00
59505;DHT22;45321;53.200;5.814;2023-04-25T02:56:56;7.80;72.20
59505;DHT22;45321;53.200;5.814;2023-04-25T02:59:21;7.80;72.10
59505;DHT22;45321;53.200;5.814;2023-04-25T03:01:47;7.80;72.10
59505;DHT22;45321;53.200;5.814;2023-04-25T03:04:13;7.80;72.40
59505;DHT22;45321;53.200;5.814;2023-04-25T03:06:39;7.90;72.60
59505;DHT22;45321;53.200;5.814;2023-04-25T03:09:04;7.90;73.00
59505;DHT22;45321;53.200;5.814;2023-04-25T03:11:30;7.90;73.30
59505;DHT22;45321;53.200;5.814;2023-04-25T03:13:56;7.90;73.30
59505;DHT22;45321;53.200;5.814;2023-04-25T03:16:22;8.00;73.30
59505;DHT22;45321;53.200;5.814;2023-04-25T03:18:48;8.00;73.60
59505;DHT22;45321;53.200;5.814;2023-04-25T03:21:15;8.00;73.10
59505;DHT22;45321;53.200;5.814;2023-04-25T03:23:41;8.00;72.10
59505;DHT22;45321;53.200;5.814;2023-04-25T03:26:06;8.00;71.00
59505;DHT22;45321;53.200;5.814;2023-04-25T03:28:32;7.90;69.50
59505;DHT22;45321;53.200;5.814;2023-04-25T03:30:58;7.80;69.40
59505;DHT22;45321;53.200;5.814;2023-04-25T03:33:23;7.80;69.50
59505;DHT22;45321;53.200;5.814;2023-04-25T03:35:49;7.80;69.10
59505;DHT22;45321;53.200;5.814;2023-04-25T03:38:15;7.80;69.00
59505;DHT22;45321;53.200;5.814;2023-04-25T03:40:41;7.80;68.90
59505;DHT22;45321;53.200;5.814;2023-04-25T03:43:07;7.80;68.50
59505;DHT22;45321;53.200;5.814;2023-04-25T03:45:32;7.80;69.10
59505;DHT22;45321;53.200;5.814;2023-04-25T03:47:58;7.80;69.00
59505;DHT22;45321;53.200;5.814;2023-04-25T03:50:27;7.80;69.20
59505;DHT22;45321;53.200;5.814;2023-04-25T03:52:53;7.80;69.80
59505;DHT22;45321;53.200;5.814;2023-04-25T03:55:21;7.80;69.50
59505;DHT22;45321;53.200;5.814;2023-04-25T03:57:47;7.80;69.20
59505;DHT22;45321;53.200;5.814;2023-04-25T04:00:13;7.70;69.40
59505;DHT22;45321;53.200;5.814;2023-04-25T04:02:39;7.80;69.70
59505;DHT22;45321;53.200;5.814;2023-04-25T04:05:05;7.70;69.30
59505;DHT22;45321;53.200;5.814;2023-04-25T04:07:31;7.70;69.10
59505;DHT22;45321;53.200;5.814;2023-04-25T04:09:58;7.60;69.50
59505;DHT22;45321;53.200;5.814;2023-04-25T04:12:24;7.60;69.10
59505;DHT22;45321;53.200;5.814;2023-04-25T04:14:50;7.60;68.90
59505;DHT22;45321;53.200;5.814;2023-04-25T04:17:16;7.60;68.50
59505;DHT22;45321;53.200;5.814;2023-04-25T04:19:41;7.50;68.80
59505;DHT22;45321;53.200;5.814;2023-04-25T04:22:07;7.60;68.00
59505;DHT22;45321;53.200;5.814;2023-04-25T04:24:33;7.50;68.80
59505;DHT22;45321;53.200;5.814;2023-04-25T04:26:58;7.60;69.60
59505;DHT22;45321;53.200;5.814;2023-04-25T04:29:24;7.60;69.30
59505;DHT22;45321;53.200;5.814;2023-04-25T04:31:51;7.60;68.70
59505;DHT22;45321;53.200;5.814;2023-04-25T04:34:18;7.60;68.60
59505;DHT22;45321;53.200;5.814;2023-04-25T04:36:47;7.60;68.90
59505;DHT22;45321;53.200;5.814;2023-04-25T04:39:13;7.60;68.70
59505;DHT22;45321;53.200;5.814;2023-04-25T04:41:39;7.60;68.70
59505;DHT22;45321;53.200;5.814;2023-04-25T04:44:05;7.60;68.80
59505;DHT22;45321;53.200;5.814;2023-04-25T04:46:32;7.60;69.30
59505;DHT22;45321;53.200;5.814;2023-04-25T04:49:04;7.60;69.40
59505;DHT22;45321;53.200;5.814;2023-04-25T04:51:30;7.50;69.80
59505;DHT22;45321;53.200;5.814;2023-04-25T04:53:56;7.50;69.60
59505;DHT22;45321;53.200;5.814;2023-04-25T04:56:24;7.50;69.60
59505;DHT22;45321;53.200;5.814;2023-04-25T04:58:51;7.50;70.00
59505;DHT22;45321;53.200;5.814;2023-04-25T05:01:21;7.60;70.10
59505;DHT22;45321;53.200;5.814;2023-04-25T05:03:47;7.60;69.90
59505;DHT22;45321;53.200;5.814;2023-04-25T05:06:13;7.60;70.30
59505;DHT22;45321;53.200;5.814;2023-04-25T05:08:38;7.60;70.30
59505;DHT22;45321;53.200;5.814;2023-04-25T05:11:05;7.70;70.90
59505;DHT22;45321;53.200;5.814;2023-04-25T05:13:30;7.70;70.30
59505;DHT22;45321;53.200;5.814;2023-04-25T05:15:56;7.70;70.20
59505;DHT22;45321;53.200;5.814;2023-04-25T05:18:22;7.70;70.20
59505;DHT22;45321;53.200;5.814;2023-04-25T05:20:48;7.60;70.30
59505;DHT22;45321;53.200;5.814;2023-04-25T05:23:13;7.70;70.40
59505;DHT22;45321;53.200;5.814;2023-04-25T05:25:39;7.70;70.90
59505;DHT22;45321;53.200;5.814;2023-04-25T05:28:05;7.70;70.70
59505;DHT22;45321;53.200;5.814;2023-04-25T05:30:31;7.80;70.60
59505;DHT22;45321;53.200;5.814;2023-04-25T05:32:57;7.80;71.00
59505;DHT22;45321;53.200;5.814;2023-04-25T05:35:22;7.80;71.10
59505;DHT22;45321;53.200;5.814;2023-04-25T05:37:48;7.90;70.50
59505;DHT22;45321;53.200;5.814;2023-04-25T05:40:14;7.90;70.80
59505;DHT22;45321;53.200;5.814;2023-04-25T05:42:39;7.90;71.10
59505;DHT22;45321;53.200;5.814;2023-04-25T05:45:05;7.90;70.50
59505;DHT22;45321;53.200;5.814;2023-04-25T05:47:31;7.90;70.40
59505;DHT22;45321;53.200;5.814;2023-04-25T05:49:57;7.90;70.50
59505;DHT22;45321;53.200;5.814;2023-04-25T05:52:22;7.90;70.50
59505;DHT22;45321;53.200;5.814;2023-04-25T05:54:48;7.90;69.40
59505;DHT22;45321;53.200;5.814;2023-04-25T05:57:22;7.80;69.10
59505;DHT22;45321;53.200;5.814;2023-04-25T05:59:48;7.70;69.00
59505;DHT22;45321;53.200;5.814;2023-04-25T06:02:14;7.60;69.40
59505;DHT22;45321;53.200;5.814;2023-04-25T06:04:40;7.60;69.10
59505;DHT22;45321;53.200;5.814;2023-04-25T06:07:05;7.50;69.10
59505;DHT22;45321;53.200;5.814;2023-04-25T06:09:31;7.40;69.30
59505;DHT22;45321;53.200;5.814;2023-04-25T06:11:57;7.40;69.60
59505;DHT22;45321;53.200;5.814;2023-04-25T06:14:22;7.40;70.40
59505;DHT22;45321;53.200;5.814;2023-04-25T06:16:48;7.40;70.80
59505;DHT22;45321;53.200;5.814;2023-04-25T06:19:14;7.50;70.80
59505;DHT22;45321;53.200;5.814;2023-04-25T06:21:39;7.60;70.70
59505;DHT22;45321;53.200;5.814;2023-04-25T06:24:05;7.70;70.70
59505;DHT22;45321;53.200;5.814;2023-04-25T06:26:31;7.80;70.60
59505;DHT22;45321;53.200;5.814;2023-04-25T06:28:56;7.80;71.00
59505;DHT22;45321;53.200;5.814;2023-04-25T06:31:22;8.00;71.00
59505;DHT22;45321;53.200;5.814;2023-04-25T06:33:48;8.20;71.00
59505;DHT22;45321;53.200;5.814;2023-04-25T06:36:14;8.30;70.50
59505;DHT22;45321;53.200;5.814;2023-04-25T06:38:39;8.30;70.90
59505;DHT22;45321;53.200;5.814;2023-04-25T06:41:05;8.40;71.20
59505;DHT22;45321;53.200;5.814;2023-04-25T06:43:31;8.40;71.00
59505;DHT22;45321;53.200;5.814;2023-04-25T06:45:59;8.40;71.50
59505;DHT22;45321;53.200;5.814;2023-04-25T06:48:27;8.30;72.50
59505;DHT22;45321;53.200;5.814;2023-04-25T06:50:52;8.30;74.10
59505;DHT22;45321;53.200;5.814;2023-04-25T06:53:18;8.20;75.50
59505;DHT22;45321;53.200;5.814;2023-04-25T06:55:45;8.10;75.40
59505;DHT22;45321;53.200;5.814;2023-04-25T06:58:10;8.20;75.50
59505;DHT22;45321;53.200;5.814;2023-04-25T07:00:36;8.30;76.20
59505;DHT22;45321;53.200;5.814;2023-04-25T07:03:01;8.40;76.70
59505;DHT22;45321;53.200;5.814;2023-04-25T07:05:27;8.70;75.80
59505;DHT22;45321;53.200;5.814;2023-04-25T07:07:53;8.80;75.60
59505;DHT22;45321;53.200;5.814;2023-04-25T07:10:19;8.80;75.50
59505;DHT22;45321;53.200;5.814;2023-04-25T07:12:46;8.90;74.70
59505;DHT22;45321;53.200;5.814;2023-04-25T07:15:12;9.00;74.10
59505;DHT22;45321;53.200;5.814;2023-04-25T07:17:38;9.10;74.00
59505;DHT22;45321;53.200;5.814;2023-04-25T07:20:04;9.10;73.10
59505;DHT22;45321;53.200;5.814;2023-04-25T07:22:32;9.10;72.90
59505;DHT22;45321;53.200;5.814;2023-04-25T07:24:58;9.20;72.40
59505;DHT22;45321;53.200;5.814;2023-04-25T07:27:23;9.10;71.10
59505;DHT22;45321;53.200;5.814;2023-04-25T07:29:49;9.10;70.40
59505;DHT22;45321;53.200;5.814;2023-04-25T07:32:15;9.20;71.50
59505;DHT22;45321;53.200;5.814;2023-04-25T07:34:40;9.30;71.30
59505;DHT22;45321;53.200;5.814;2023-04-25T07:37:07;9.60;71.60
59505;DHT22;45321;53.200;5.814;2023-04-25T07:39:32;9.80;69.40
59505;DHT22;45321;53.200;5.814;2023-04-25T07:41:58;9.80;69.30
59505;DHT22;45321;53.200;5.814;2023-04-25T07:44:25;9.80;69.30
59505;DHT22;45321;53.200;5.814;2023-04-25T07:46:51;9.90;69.10
59505;DHT22;45321;53.200;5.814;2023-04-25T07:49:17;9.90;68.60
59505;DHT22;45321;53.200;5.814;2023-04-25T07:51:43;9.80;68.20
59505;DHT22;45321;53.200;5.814;2023-04-25T07:54:10;9.80;68.20
59505;DHT22;45321;53.200;5.814;2023-04-25T07:56:36;9.90;65.90
59505;DHT22;45321;53.200;5.814;2023-04-25T07:59:02;9.80;65.70
59505;DHT22;45321;53.200;5.814;2023-04-25T08:01:28;9.90;65.10
59505;DHT22;45321;53.200;5.814;2023-04-25T08:03:53;9.90;64.60
59505;DHT22;45321;53.200;5.814;2023-04-25T08:06:19;10.00;65.80
59505;DHT22;45321;53.200;5.814;2023-04-25T08:08:45;10.00;64.40
59505;DHT22;45321;53.200;5.814;2023-04-25T08:11:11;10.00;64.50
59505;DHT22;45321;53.200;5.814;2023-04-25T08:13:37;10.00;63.90
59505;DHT22;45321;53.200;5.814;2023-04-25T08:16:03;10.10;65.40
59505;DHT22;45321;53.200;5.814;2023-04-25T08:18:28;10.10;64.60
59505;DHT22;45321;53.200;5.814;2023-04-25T08:20:54;10.10;64.90
59505;DHT22;45321;53.200;5.814;2023-04-25T08:23:20;10.00;64.00
59505;DHT22;45321;53.200;5.814;2023-04-25T08:25:46;10.00;64.80
59505;DHT22;45321;53.200;5.814;2023-04-25T08:28:11;10.00;65.40
59505;DHT22;45321;53.200;5.814;2023-04-25T08:30:37;10.10;65.80
59505;DHT22;45321;53.200;5.814;2023-04-25T08:33:03;10.30;66.00
59505;DHT22;45321;53.200;5.814;2023-04-25T08:35:29;10.30;65.50
59505;DHT22;45321;53.200;5.814;2023-04-25T08:37:55;10.30;65.90
59505;DHT22;45321;53.200;5.814;2023-04-25T08:40:22;10.10;65.40
59505;DHT22;45321;53.200;5.814;2023-04-25T08:42:54;10.00;65.70
59505;DHT22;45321;53.200;5.814;2023-04-25T08:45:21;9.90;64.80
59505;DHT22;45321;53.200;5.814;2023-04-25T08:47:47;9.90;66.20
59505;DHT22;45321;53.200;5.814;2023-04-25T08:50:17;10.00;66.50
59505;DHT22;45321;53.200;5.814;2023-04-25T08:52:47;10.20;66.70
59505;DHT22;45321;53.200;5.814;2023-04-25T08:55:13;10.30;66.70
59505;DHT22;45321;53.200;5.814;2023-04-25T08:57:43;10.40;66.60
59505;DHT22;45321;53.200;5.814;2023-04-25T09:00:10;10.60;65.30
59505;DHT22;45321;53.200;5.814;2023-04-25T09:02:39;10.80;65.60
59505;DHT22;45321;53.200;5.814;2023-04-25T09:05:05;10.90;65.10
59505;DHT22;45321;53.200;5.814;2023-04-25T09:07:32;11.20;65.00
59505;DHT22;45321;53.200;5.814;2023-04-25T09:09:58;11.30;64.00
59505;DHT22;45321;53.200;5.814;2023-04-25T09:12:29;11.30;62.70
59505;DHT22;45321;53.200;5.814;2023-04-25T09:15:03;11.30;61.10
59505;DHT22;45321;53.200;5.814;2023-04-25T09:17:29;11.30;61.20
59505;DHT22;45321;53.200;5.814;2023-04-25T09:19:55;11.30;60.70
59505;DHT22;45321;53.200;5.814;2023-04-25T09:22:30;11.30;61.40
59505;DHT22;45321;53.200;5.814;2023-04-25T09:24:56;11.40;60.80
59505;DHT22;45321;53.200;5.814;2023-04-25T09:27:22;11.40;61.30
59505;DHT22;45321;53.200;5.814;2023-04-25T09:29:57;11.40;62.20
59505;DHT22;45321;53.200;5.814;2023-04-25T09:32:25;11.40;61.20
59505;DHT22;45321;53.200;5.814;2023-04-25T09:34:55;11.30;60.00
59505;DHT22;45321;53.200;5.814;2023-04-25T09:37:29;11.30;61.00
59505;DHT22;45321;53.200;5.814;2023-04-25T09:39:57;11.20;60.40
59505;DHT22;45321;53.200;5.814;2023-04-25T09:42:28;11.30;60.90
59505;DHT22;45321;53.200;5.814;2023-04-25T09:44:56;11.30;60.50
59505;DHT22;45321;53.200;5.814;2023-04-25T09:47:24;11.40;61.20
59505;DHT22;45321;53.200;5.814;2023-04-25T09:49:51;11.40;62.30
59505;DHT22;45321;53.200;5.814;2023-04-25T09:52:19;11.30;62.30
59505;DHT22;45321;53.200;5.814;2023-04-25T09:54:46;11.20;62.90
59505;DHT22;45321;53.200;5.814;2023-04-25T09:57:20;11.10;63.80
59505;DHT22;45321;53.200;5.814;2023-04-25T09:59:51;11.10;63.70
59505;DHT22;45321;53.200;5.814;2023-04-25T10:02:18;11.20;63.60
59505;DHT22;45321;53.200;5.814;2023-04-25T10:04:52;11.20;63.40
59505;DHT22;45321;53.200;5.814;2023-04-25T10:07:24;11.20;62.70
59505;DHT22;45321;53.200;5.814;2023-04-25T10:10:04;11.10;61.90
59505;DHT22;45321;53.200;5.814;2023-04-25T10:12:30;11.10;62.00
59505;DHT22;45321;53.200;5.814;2023-04-25T10:14:57;11.00;61.00
59505;DHT22;45321;53.200;5.814;2023-04-25T10:17:23;11.10;60.90
59505;DHT22;45321;53.200;5.814;2023-04-25T10:19:50;11.20;61.20
59505;DHT22;45321;53.200;5.814;2023-04-25T10:22:39;11.40;60.00
59505;DHT22;45321;53.200;5.814;2023-04-25T10:25:06;11.70;59.50
59505;DHT22;45321;53.200;5.814;2023-04-25T10:27:34;11.90;59.70
59505;DHT22;45321;53.200;5.814;2023-04-25T10:30:10;12.10;59.50
59505;DHT22;45321;53.200;5.814;2023-04-25T10:32:38;12.20;60.50
59505;DHT22;45321;53.200;5.814;2023-04-25T10:35:18;12.00;63.10
59505;DHT22;45321;53.200;5.814;2023-04-25T10:40:26;11.70;64.50
59505;DHT22;45321;53.200;5.814;2023-04-25T10:42:55;11.50;64.20
59505;DHT22;45321;53.200;5.814;2023-04-25T10:45:21;11.30;64.00
59505;DHT22;45321;53.200;5.814;2023-04-25T10:47:47;11.30;65.00
59505;DHT22;45321;53.200;5.814;2023-04-25T10:50:17;11.10;65.00
59505;DHT22;45321;53.200;5.814;2023-04-25T10:52:43;11.20;64.40
59505;DHT22;45321;53.200;5.814;2023-04-25T10:55:10;11.50;65.50
59505;DHT22;45321;53.200;5.814;2023-04-25T10:57:40;11.80;62.90
59505;DHT22;45321;53.200;5.814;2023-04-25T11:00:18;12.30;61.80
59505;DHT22;45321;53.200;5.814;2023-04-25T11:02:51;12.60;60.30
59505;DHT22;45321;53.200;5.814;2023-04-25T11:05:29;12.80;60.20
59505;DHT22;45321;53.200;5.814;2023-04-25T11:07:55;13.20;59.00
59505;DHT22;45321;53.200;5.814;2023-04-25T11:10:29;13.50;59.60
59505;DHT22;45321;53.200;5.814;2023-04-25T11:12:55;13.70;59.30
59505;DHT22;45321;53.200;5.814;2023-04-25T11:15:21;13.80;59.20
59505;DHT22;45321;53.200;5.814;2023-04-25T11:17:47;14.00;59.10
59505;DHT22;45321;53.200;5.814;2023-04-25T11:20:13;14.10;58.20
59505;DHT22;45321;53.200;5.814;2023-04-25T11:22:41;14.20;57.30
59505;DHT22;45321;53.200;5.814;2023-04-25T11:25:11;14.20;58.90
59505;DHT22;45321;53.200;5.814;2023-04-25T11:27:57;13.90;61.60
59505;DHT22;45321;53.200;5.814;2023-04-25T11:30:24;13.60;60.50
59505;DHT22;45321;53.200;5.814;2023-04-25T11:32:50;13.20;60.30
59505;DHT22;45321;53.200;5.814;2023-04-25T11:35:18;13.20;61.90
59505;DHT22;45321;53.200;5.814;2023-04-25T11:37:44;13.40;62.10
59505;DHT22;45321;53.200;5.814;2023-04-25T11:40:10;13.30;60.00
59505;DHT22;45321;53.200;5.814;2023-04-25T11:42:38;13.00;57.60
59505;DHT22;45321;53.200;5.814;2023-04-25T11:45:04;12.80;57.90
59505;DHT22;45321;53.200;5.814;2023-04-25T11:47:31;12.40;58.60
59505;DHT22;45321;53.200;5.814;2023-04-25T11:49:58;12.70;62.00
59505;DHT22;45321;53.200;5.814;2023-04-25T11:52:35;12.80;59.40
59505;DHT22;45321;53.200;5.814;2023-04-25T11:55:00;13.00;60.30
59505;DHT22;45321;53.200;5.814;2023-04-25T11:57:26;13.10;58.50
59505;DHT22;45321;53.200;5.814;2023-04-25T11:59:52;13.30;58.90
59505;DHT22;45321;53.200;5.814;2023-04-25T12:02:25;13.40;57.60
59505;DHT22;45321;53.200;5.814;2023-04-25T12:04:51;13.30;54.70
59505;DHT22;45321;53.200;5.814;2023-04-25T12:07:17;13.30;54.70
59505;DHT22;45321;53.200;5.814;2023-04-25T12:09:51;13.40;53.80
59505;DHT22;45321;53.200;5.814;2023-04-25T12:12:18;13.60;52.90
59505;DHT22;45321;53.200;5.814;2023-04-25T12:14:47;13.90;52.20
59505;DHT22;45321;53.200;5.814;2023-04-25T12:17:14;14.40;51.90
59505;DHT22;45321;53.200;5.814;2023-04-25T12:19:40;14.80;50.10
59505;DHT22;45321;53.200;5.814;2023-04-25T12:22:20;14.90;50.00
59505;DHT22;45321;53.200;5.814;2023-04-25T12:24:46;14.80;47.00
59505;DHT22;45321;53.200;5.814;2023-04-25T12:27:15;14.80;49.50
59505;DHT22;45321;53.200;5.814;2023-04-25T12:29:54;14.70;49.30
59505;DHT22;45321;53.200;5.814;2023-04-25T12:32:21;14.90;51.60
59505;DHT22;45321;53.200;5.814;2023-04-25T12:34:47;15.00;49.90
59505;DHT22;45321;53.200;5.814;2023-04-25T12:37:12;14.90;49.20
59505;DHT22;45321;53.200;5.814;2023-04-25T12:39:38;14.80;50.40
59505;DHT22;45321;53.200;5.814;2023-04-25T12:42:04;14.60;51.50
59505;DHT22;45321;53.200;5.814;2023-04-25T12:44:30;14.60;51.60
59505;DHT22;45321;53.200;5.814;2023-04-25T12:46:56;14.70;50.40
59505;DHT22;45321;53.200;5.814;2023-04-25T12:49:22;15.20;49.50
59505;DHT22;45321;53.200;5.814;2023-04-25T12:51:48;15.60;48.20
59505;DHT22;45321;53.200;5.814;2023-04-25T12:54:14;15.90;47.80
59505;DHT22;45321;53.200;5.814;2023-04-25T12:56:41;16.30;48.40
59505;DHT22;45321;53.200;5.814;2023-04-25T12:59:07;16.70;46.90
59505;DHT22;45321;53.200;5.814;2023-04-25T13:01:33;16.50;45.40
59505;DHT22;45321;53.200;5.814;2023-04-25T13:03:58;16.30;46.70
59505;DHT22;45321;53.200;5.814;2023-04-25T13:06:24;16.10;46.40
59505;DHT22;45321;53.200;5.814;2023-04-25T13:08:51;15.80;45.80
59505;DHT22;45321;53.200;5.814;2023-04-25T13:11:17;15.80;45.70
59505;DHT22;45321;53.200;5.814;2023-04-25T13:13:43;15.90;45.30
59505;DHT22;45321;53.200;5.814;2023-04-25T13:16:09;16.20;46.90
59505;DHT22;45321;53.200;5.814;2023-04-25T13:18:35;16.40;44.10
59505;DHT22;45321;53.200;5.814;2023-04-25T13:21:01;16.70;44.90
59505;DHT22;45321;53.200;5.814;2023-04-25T13:23:28;16.90;43.90
59505;DHT22;45321;53.200;5.814;2023-04-25T13:25:55;17.10;45.20
59505;DHT22;45321;53.200;5.814;2023-04-25T13:28:26;17.30;42.50
59505;DHT22;45321;53.200;5.814;2023-04-25T13:30:52;17.40;40.90
59505;DHT22;45321;53.200;5.814;2023-04-25T13:33:18;17.30;41.20
59505;DHT22;45321;53.200;5.814;2023-04-25T13:35:47;17.30;42.00
59505;DHT22;45321;53.200;5.814;2023-04-25T13:38:22;17.50;41.90
59505;DHT22;45321;53.200;5.814;2023-04-25T13:40:49;17.90;43.20
59505;DHT22;45321;53.200;5.814;2023-04-25T13:43:18;18.40;42.60
59505;DHT22;45321;53.200;5.814;2023-04-25T13:45:44;18.70;41.10
59505;DHT22;45321;53.200;5.814;2023-04-25T13:48:10;18.50;40.00
59505;DHT22;45321;53.200;5.814;2023-04-25T13:50:36;18.00;42.60
59505;DHT22;45321;53.200;5.814;2023-04-25T13:53:01;17.50;42.80
59505;DHT22;45321;53.200;5.814;2023-04-25T13:55:27;17.30;43.80
59505;DHT22;45321;53.200;5.814;2023-04-25T13:57:53;17.00;43.10
59505;DHT22;45321;53.200;5.814;2023-04-25T14:00:19;16.40;45.90
59505;DHT22;45321;53.200;5.814;2023-04-25T14:02:45;15.90;46.00
59505;DHT22;45321;53.200;5.814;2023-04-25T14:05:11;15.50;46.80
59505;DHT22;45321;53.200;5.814;2023-04-25T14:07:37;15.50;47.60
59505;DHT22;45321;53.200;5.814;2023-04-25T14:10:03;16.40;45.80
59505;DHT22;45321;53.200;5.814;2023-04-25T14:12:30;17.40;43.50
59505;DHT22;45321;53.200;5.814;2023-04-25T14:14:56;18.20;42.50
59505;DHT22;45321;53.200;5.814;2023-04-25T14:17:21;18.70;42.30
59505;DHT22;45321;53.200;5.814;2023-04-25T14:19:47;18.50;40.50
59505;DHT22;45321;53.200;5.814;2023-04-25T14:22:14;17.90;41.50
59505;DHT22;45321;53.200;5.814;2023-04-25T14:24:43;17.40;43.40
59505;DHT22;45321;53.200;5.814;2023-04-25T14:27:08;17.10;43.80
59505;DHT22;45321;53.200;5.814;2023-04-25T14:29:34;17.50;45.10
59505;DHT22;45321;53.200;5.814;2023-04-25T14:32:00;18.30;42.90
59505;DHT22;45321;53.200;5.814;2023-04-25T14:34:26;18.30;40.60
59505;DHT22;45321;53.200;5.814;2023-04-25T14:36:52;17.80;42.10
59505;DHT22;45321;53.200;5.814;2023-04-25T14:39:18;17.20;42.70
59505;DHT22;45321;53.200;5.814;2023-04-25T14:41:44;16.70;43.00
59505;DHT22;45321;53.200;5.814;2023-04-25T14:44:10;16.40;42.80
59505;DHT22;45321;53.200;5.814;2023-04-25T14:46:36;16.20;42.70
59505;DHT22;45321;53.200;5.814;2023-04-25T14:49:03;16.00;43.50
59505;DHT22;45321;53.200;5.814;2023-04-25T14:51:29;16.20;44.50
59505;DHT22;45321;53.200;5.814;2023-04-25T14:53:56;16.30;44.70
59505;DHT22;45321;53.200;5.814;2023-04-25T14:56:22;16.20;43.90
59505;DHT22;45321;53.200;5.814;2023-04-25T14:58:48;16.00;44.70
59505;DHT22;45321;53.200;5.814;2023-04-25T15:01:14;15.70;48.60
59505;DHT22;45321;53.200;5.814;2023-04-25T15:03:40;16.20;50.70
59505;DHT22;45321;53.200;5.814;2023-04-25T15:06:06;17.30;48.40
59505;DHT22;45321;53.200;5.814;2023-04-25T15:08:32;18.60;46.20
59505;DHT22;45321;53.200;5.814;2023-04-25T15:10:58;19.70;43.90
59505;DHT22;45321;53.200;5.814;2023-04-25T15:13:25;20.70;42.40
59505;DHT22;45321;53.200;5.814;2023-04-25T15:15:51;21.20;39.90
59505;DHT22;45321;53.200;5.814;2023-04-25T15:18:20;20.50;37.20
59505;DHT22;45321;53.200;5.814;2023-04-25T15:20:48;19.50;38.60
59505;DHT22;45321;53.200;5.814;2023-04-25T15:23:14;18.40;39.20
59505;DHT22;45321;53.200;5.814;2023-04-25T15:25:40;17.60;41.00
59505;DHT22;45321;53.200;5.814;2023-04-25T15:28:05;16.90;41.60
59505;DHT22;45321;53.200;5.814;2023-04-25T15:30:31;16.40;43.80
59505;DHT22;45321;53.200;5.814;2023-04-25T15:32:57;15.90;46.20
59505;DHT22;45321;53.200;5.814;2023-04-25T15:35:23;15.40;47.30
59505;DHT22;45321;53.200;5.814;2023-04-25T15:37:48;15.20;48.00
59505;DHT22;45321;53.200;5.814;2023-04-25T15:40:16;14.90;48.70